sensor_id;sensor_type;location;lat;lon;timestamp;pressure;altitude;pressure_sealevel;temperature;humidity
59170;BME280;52474;52.236;5.114;2023-07-30T00:01:41;100893.63;;;16.38;100.00
59170;BME280;52474;52.236;5.114;2023-07-30T00:04:06;100890.97;;;16.38;100.00
59170;BME280;52474;52.236;5.114;2023-07-30T00:06:32;100875.44;;;16.25;100.00
59170;BME280;52474;52.236;5.114;2023-07-30T00:08:58;100878.59;;;16.28;100.00
59170;BME280;52474;52.236;5.114;2023-07-30T00:11:24;100896.31;;;16.38;100.00
59170;BME280;52474;52.236;5.114;2023-07-30T00:13:49;100878.09;;;16.17;100.00
59170;BME280;52474;52.236;5.114;2023-07-30T00:16:15;100871.91;;;16.08;100.00
59170;BME280;52474;52.236;5.114;2023-07-30T00:18:40;100893.63;;;16.13;100.00
59170;BME280;52474;52.236;5.114;2023-07-30T00:21:06;100908.97;;;16.19;100.00
59170;BME280;52474;52.236;5.114;2023-07-30T00:23:32;100901.31;;;16.16;100.00
59170;BME280;52474;52.236;5.114;2023-07-30T00:25:57;100907.81;;;16.14;100.00
59170;BME280;52474;52.236;5.114;2023-07-30T00:28:23;100878.78;;;16.02;100.00
59170;BME280;52474;52.236;5.114;2023-07-30T00:30:48;100902.81;;;16.10;100.00
59170;BME280;52474;52.236;5.114;2023-07-30T00:33:15;100908.31;;;16.09;100.00
59170;BME280;52474;52.236;5.114;2023-07-30T00:35:40;100882.91;;;15.97;100.00
59170;BME280;52474;52.236;5.114;2023-07-30T00:38:06;100903.97;;;16.08;100.00
59170;BME280;52474;52.236;5.114;2023-07-30T00:40:31;100908.81;;;16.13;100.00
59170;BME280;52474;52.236;5.114;2023-07-30T00:42:57;100896.13;;;16.06;100.00
59170;BME280;52474;52.236;5.114;2023-07-30T00:45:23;100897.97;;;16.06;100.00
59170;BME280;52474;52.236;5.114;2023-07-30T00:47:49;100907.13;;;16.03;100.00
59170;BME280;52474;52.236;5.114;2023-07-30T00:50:17;100912.31;;;16.05;100.00
59170;BME280;52474;52.236;5.114;2023-07-30T00:52:43;100909.81;;;15.95;100.00
59170;BME280;52474;52.236;5.114;2023-07-30T00:55:09;100907.78;;;15.97;100.00
59170;BME280;52474;52.236;5.114;2023-07-30T00:57:36;100913.81;;;15.99;100.00
59170;BME280;52474;52.236;5.114;2023-07-30T01:00:03;100908.97;;;16.03;100.00
59170;BME280;52474;52.236;5.114;2023-07-30T01:02:31;100895.09;;;15.91;100.00
59170;BME280;52474;52.236;5.114;2023-07-30T01:04:57;100907.78;;;15.97;100.00
59170;BME280;52474;52.236;5.114;2023-07-30T01:07:25;100919.47;;;16.04;100.00
59170;BME280;52474;52.236;5.114;2023-07-30T01:09:51;100913.31;;;16.04;100.00
59170;BME280;52474;52.236;5.114;2023-07-30T01:12:17;100921.34;;;16.12;100.00
59170;BME280;52474;52.236;5.114;2023-07-30T01:14:45;100919.50;;;16.13;100.00
59170;BME280;52474;52.236;5.114;2023-07-30T01:17:11;100884.91;;;15.95;100.00
59170;BME280;52474;52.236;5.114;2023-07-30T01:19:37;100904.66;;;16.10;100.00
59170;BME280;52474;52.236;5.114;2023-07-30T01:22:03;100929.72;;;16.25;100.00
59170;BME280;52474;52.236;5.114;2023-07-30T01:24:29;100930.88;;;16.23;100.00
59170;BME280;52474;52.236;5.114;2023-07-30T01:27:06;100938.56;;;16.26;100.00
59170;BME280;52474;52.236;5.114;2023-07-30T01:29:38;100930.38;;;16.27;100.00
59170;BME280;52474;52.236;5.114;2023-07-30T01:32:08;100922.03;;;16.22;100.00
59170;BME280;52474;52.236;5.114;2023-07-30T01:34:37;100926.19;;;16.17;100.00
59170;BME280;52474;52.236;5.114;2023-07-30T01:37:05;100924.03;;;16.20;100.00
59170;BME280;52474;52.236;5.114;2023-07-30T01:39:35;100931.69;;;16.23;100.00
59170;BME280;52474;52.236;5.114;2023-07-30T01:42:04;100918.69;;;16.20;100.00
59170;BME280;52474;52.236;5.114;2023-07-30T01:44:29;100903.97;;;16.08;100.00
59170;BME280;52474;52.236;5.114;2023-07-30T01:46:55;100928.84;;;16.17;100.00
59170;BME280;52474;52.236;5.114;2023-07-30T01:49:21;100922.19;;;16.13;100.00
59170;BME280;52474;52.236;5.114;2023-07-30T01:51:48;100931.03;;;16.13;100.00
59170;BME280;52474;52.236;5.114;2023-07-30T01:54:13;100932.69;;;16.14;100.00
59170;BME280;52474;52.236;5.114;2023-07-30T01:56:39;100906.66;;;16.00;100.00
59170;BME280;52474;52.236;5.114;2023-07-30T01:59:05;100934.72;;;16.12;100.00
59170;BME280;52474;52.236;5.114;2023-07-30T02:01:30;100940.56;;;16.16;100.00
59170;BME280;52474;52.236;5.114;2023-07-30T02:03:56;100901.78;;;15.95;100.00
59170;BME280;52474;52.236;5.114;2023-07-30T02:06:22;100932.38;;;16.17;100.00
59170;BME280;52474;52.236;5.114;2023-07-30T02:08:48;100946.22;;;16.21;100.00
59170;BME280;52474;52.236;5.114;2023-07-30T02:11:14;100926.03;;;16.10;100.00
59170;BME280;52474;52.236;5.114;2023-07-30T02:13:39;100943.72;;;16.19;100.00
59170;BME280;52474;52.236;5.114;2023-07-30T02:16:05;100939.72;;;16.23;100.00
59170;BME280;52474;52.236;5.114;2023-07-30T02:18:30;100938.06;;;16.22;100.00
59170;BME280;52474;52.236;5.114;2023-07-30T02:20:56;100919.50;;;16.13;100.00
59170;BME280;52474;52.236;5.114;2023-07-30T02:23:22;100939.72;;;16.23;100.00
59170;BME280;52474;52.236;5.114;2023-07-30T02:25:47;100881.41;;;15.86;100.00
59170;BME280;52474;52.236;5.114;2023-07-30T02:28:13;100941.22;;;16.26;100.00
59170;BME280;52474;52.236;5.114;2023-07-30T02:30:39;100912.19;;;16.15;100.00
59170;BME280;52474;52.236;5.114;2023-07-30T02:33:04;100910.34;;;16.15;100.00
59170;BME280;52474;52.236;5.114;2023-07-30T02:35:30;100938.06;;;16.30;100.00
59170;BME280;52474;52.236;5.114;2023-07-30T02:37:56;100917.84;;;16.20;100.00
59170;BME280;52474;52.236;5.114;2023-07-30T02:40:21;100934.22;;;16.33;100.00
59170;BME280;52474;52.236;5.114;2023-07-30T02:42:47;100925.38;;;16.24;100.00
59170;BME280;52474;52.236;5.114;2023-07-30T02:45:12;100922.19;;;16.29;100.00
59170;BME280;52474;52.236;5.114;2023-07-30T02:47:38;100926.69;;;16.28;100.00
59170;BME280;52474;52.236;5.114;2023-07-30T02:50:04;100933.06;;;16.27;100.00
59170;BME280;52474;52.236;5.114;2023-07-30T02:52:31;100904.31;;;16.13;100.00
59170;BME280;52474;52.236;5.114;2023-07-30T02:54:57;100906.16;;;16.13;100.00
59170;BME280;52474;52.236;5.114;2023-07-30T02:57:22;100919.50;;;16.21;100.00
59170;BME280;52474;52.236;5.114;2023-07-30T02:59:48;100901.63;;;16.13;100.00
59170;BME280;52474;52.236;5.114;2023-07-30T03:02:14;100917.50;;;16.23;100.00
59170;BME280;52474;52.236;5.114;2023-07-30T03:04:40;100889.13;;;16.05;100.00
59170;BME280;52474;52.236;5.114;2023-07-30T03:07:06;100922.72;;;16.24;100.00
59170;BME280;52474;52.236;5.114;2023-07-30T03:09:32;100923.19;;;16.20;100.00
59170;BME280;52474;52.236;5.114;2023-07-30T03:11:59;100917.66;;;16.21;100.00
59170;BME280;52474;52.236;5.114;2023-07-30T03:14:24;100922.69;;;16.16;100.00
59170;BME280;52474;52.236;5.114;2023-07-30T03:16:50;100929.53;;;16.19;100.00
59170;BME280;52474;52.236;5.114;2023-07-30T03:19:16;100923.69;;;16.15;100.00
59170;BME280;52474;52.236;5.114;2023-07-30T03:21:42;100907.00;;;16.05;100.00
59170;BME280;52474;52.236;5.114;2023-07-30T03:24:07;100902.13;;;16.00;100.00
59170;BME280;52474;52.236;5.114;2023-07-30T03:26:34;100909.13;;;15.93;100.00
59170;BME280;52474;52.236;5.114;2023-07-30T03:28:59;100930.00;;;16.06;100.00
59170;BME280;52474;52.236;5.114;2023-07-30T03:31:25;100934.34;;;15.99;100.00
59170;BME280;52474;52.236;5.114;2023-07-30T03:33:52;100918.66;;;15.87;100.00
59170;BME280;52474;52.236;5.114;2023-07-30T03:36:17;100942.84;;;15.94;100.00
59170;BME280;52474;52.236;5.114;2023-07-30T03:38:43;100928.66;;;15.85;100.00
59170;BME280;52474;52.236;5.114;2023-07-30T03:41:10;100931.63;;;15.82;100.00
59170;BME280;52474;52.236;5.114;2023-07-30T03:43:36;100915.44;;;15.76;100.00
59170;BME280;52474;52.236;5.114;2023-07-30T03:46:02;100920.78;;;15.84;100.00
59170;BME280;52474;52.236;5.114;2023-07-30T03:48:28;100923.31;;;15.85;100.00
59170;BME280;52474;52.236;5.114;2023-07-30T03:50:54;100933.19;;;16.01;100.00
59170;BME280;52474;52.236;5.114;2023-07-30T03:53:21;100906.75;;;15.82;100.00
59170;BME280;52474;52.236;5.114;2023-07-30T03:55:47;100940.69;;;15.98;100.00
59170;BME280;52474;52.236;5.114;2023-07-30T03:58:13;100939.84;;;15.97;100.00
59170;BME280;52474;52.236;5.114;2023-07-30T04:00:39;100928.50;;;15.95;100.00
59170;BME280;52474;52.236;5.114;2023-07-30T04:03:04;100930.16;;;15.88;100.00
59170;BME280;52474;52.236;5.114;2023-07-30T04:05:30;100942.03;;;16.02;100.00
59170;BME280;52474;52.236;5.114;2023-07-30T04:07:56;100944.53;;;16.03;100.00
59170;BME280;52474;52.236;5.114;2023-07-30T04:10:22;100940.38;;;16.01;100.00
59170;BME280;52474;52.236;5.114;2023-07-30T04:12:47;100951.72;;;16.11;100.00
59170;BME280;52474;52.236;5.114;2023-07-30T04:15:14;100948.72;;;16.14;100.00
59170;BME280;52474;52.236;5.114;2023-07-30T04:17:40;100956.25;;;16.19;100.00
59170;BME280;52474;52.236;5.114;2023-07-30T04:20:06;100953.41;;;16.20;100.00
59170;BME280;52474;52.236;5.114;2023-07-30T04:22:32;100950.22;;;16.17;100.00
59170;BME280;52474;52.236;5.114;2023-07-30T04:24:58;100951.91;;;16.18;100.00
59170;BME280;52474;52.236;5.114;2023-07-30T04:27:23;100959.09;;;16.17;100.00
59170;BME280;52474;52.236;5.114;2023-07-30T04:29:49;100956.09;;;16.20;100.00
59170;BME280;52474;52.236;5.114;2023-07-30T04:32:15;100931.38;;;16.10;100.00
59170;BME280;52474;52.236;5.114;2023-07-30T04:34:41;100937.69;;;16.09;100.00
59170;BME280;52474;52.236;5.114;2023-07-30T04:37:08;100965.47;;;16.33;100.00
59170;BME280;52474;52.236;5.114;2023-07-30T04:39:35;100948.94;;;16.37;100.00
59170;BME280;52474;52.236;5.114;2023-07-30T04:42:02;100946.41;;;16.27;100.00
59170;BME280;52474;52.236;5.114;2023-07-30T04:44:28;100947.88;;;16.22;100.00
59170;BME280;52474;52.236;5.114;2023-07-30T04:46:59;100966.78;;;16.28;100.00
59170;BME280;52474;52.236;5.114;2023-07-30T04:49:25;100971.97;;;16.30;100.00
59170;BME280;52474;52.236;5.114;2023-07-30T04:51:51;100970.13;;;16.30;100.00
59170;BME280;52474;52.236;5.114;2023-07-30T04:54:17;100952.09;;;16.24;100.00
59170;BME280;52474;52.236;5.114;2023-07-30T04:56:42;100920.16;;;16.06;100.00
59170;BME280;52474;52.236;5.114;2023-07-30T04:59:08;100971.16;;;16.29;100.00
59170;BME280;52474;52.236;5.114;2023-07-30T05:01:34;100966.81;;;16.37;100.00
59170;BME280;52474;52.236;5.114;2023-07-30T05:03:59;100967.16;;;16.42;100.00
59170;BME280;52474;52.236;5.114;2023-07-30T05:06:25;100958.44;;;16.40;100.00
59170;BME280;52474;52.236;5.114;2023-07-30T05:08:50;100945.25;;;16.30;100.00
59170;BME280;52474;52.236;5.114;2023-07-30T05:11:16;100952.25;;;16.31;100.00
59170;BME280;52474;52.236;5.114;2023-07-30T05:13:42;100952.28;;;16.39;100.00
59170;BME280;52474;52.236;5.114;2023-07-30T05:16:07;100964.13;;;16.45;100.00
59170;BME280;52474;52.236;5.114;2023-07-30T05:18:33;100943.41;;;16.30;100.00
59170;BME280;52474;52.236;5.114;2023-07-30T05:20:58;100968.81;;;16.43;100.00
59170;BME280;52474;52.236;5.114;2023-07-30T05:23:24;100962.63;;;16.42;100.00
59170;BME280;52474;52.236;5.114;2023-07-30T05:25:50;100974.63;;;16.46;100.00
59170;BME280;52474;52.236;5.114;2023-07-30T05:28:15;100971.81;;;16.48;100.00
59170;BME280;52474;52.236;5.114;2023-07-30T05:30:41;100981.00;;;16.53;100.00
59170;BME280;52474;52.236;5.114;2023-07-30T05:33:07;100981.03;;;16.62;100.00
59170;BME280;52474;52.236;5.114;2023-07-30T05:35:32;100970.13;;;16.63;100.00
59170;BME280;52474;52.236;5.114;2023-07-30T05:37:58;100976.66;;;16.61;100.00
59170;BME280;52474;52.236;5.114;2023-07-30T05:40:24;100970.16;;;16.55;100.00
59170;BME280;52474;52.236;5.114;2023-07-30T05:42:49;100979.03;;;16.64;100.00
59170;BME280;52474;52.236;5.114;2023-07-30T05:45:15;100978.34;;;16.70;100.00
59170;BME280;52474;52.236;5.114;2023-07-30T05:47:41;100973.66;;;16.72;100.00
59170;BME280;52474;52.236;5.114;2023-07-30T05:50:07;100975.16;;;16.83;100.00
59170;BME280;52474;52.236;5.114;2023-07-30T05:52:33;100963.50;;;16.84;100.00
59170;BME280;52474;52.236;5.114;2023-07-30T05:54:59;100958.13;;;16.84;100.00
59170;BME280;52474;52.236;5.114;2023-07-30T05:57:24;100977.00;;;16.99;100.00
59170;BME280;52474;52.236;5.114;2023-07-30T05:59:50;100969.66;;;16.92;100.00
59170;BME280;52474;52.236;5.114;2023-07-30T06:02:16;100965.47;;;16.90;100.00
59170;BME280;52474;52.236;5.114;2023-07-30T06:04:42;100971.50;;;16.92;100.00
59170;BME280;52474;52.236;5.114;2023-07-30T06:07:07;100963.66;;;16.82;100.00
59170;BME280;52474;52.236;5.114;2023-07-30T06:09:33;100982.19;;;16.92;100.00
59170;BME280;52474;52.236;5.114;2023-07-30T06:11:59;100956.59;;;16.73;100.00
59170;BME280;52474;52.236;5.114;2023-07-30T06:14:25;100971.81;;;16.97;100.00
59170;BME280;52474;52.236;5.114;2023-07-30T06:16:52;100976.31;;;17.05;100.00
59170;BME280;52474;52.236;5.114;2023-07-30T06:19:18;100973.28;;;17.08;100.00
59170;BME280;52474;52.236;5.114;2023-07-30T06:21:44;100971.59;;;17.15;100.00
59170;BME280;52474;52.236;5.114;2023-07-30T06:24:09;100975.97;;;17.16;100.00
59170;BME280;52474;52.236;5.114;2023-07-30T06:26:35;100969.28;;;17.12;100.00
59170;BME280;52474;52.236;5.114;2023-07-30T06:29:01;100965.25;;;17.08;100.00
59170;BME280;52474;52.236;5.114;2023-07-30T06:31:27;100973.78;;;17.20;100.00
59170;BME280;52474;52.236;5.114;2023-07-30T06:33:53;100969.63;;;17.09;100.00
59170;BME280;52474;52.236;5.114;2023-07-30T06:36:18;100922.34;;;16.85;100.00
59170;BME280;52474;52.236;5.114;2023-07-30T06:38:44;100965.78;;;17.11;100.00
59170;BME280;52474;52.236;5.114;2023-07-30T06:41:10;100969.63;;;17.09;100.00
59170;BME280;52474;52.236;5.114;2023-07-30T06:43:35;100970.28;;;17.11;100.00
59170;BME280;52474;52.236;5.114;2023-07-30T06:46:01;100973.63;;;17.13;100.00
59170;BME280;52474;52.236;5.114;2023-07-30T06:48:27;100973.28;;;17.16;100.00
59170;BME280;52474;52.236;5.114;2023-07-30T06:50:52;100962.75;;;17.14;100.00
59170;BME280;52474;52.236;5.114;2023-07-30T06:53:18;100972.75;;;17.29;100.00
59170;BME280;52474;52.236;5.114;2023-07-30T06:55:44;100969.06;;;17.38;100.00
59170;BME280;52474;52.236;5.114;2023-07-30T06:58:10;100962.97;;;17.52;100.00
59170;BME280;52474;52.236;5.114;2023-07-30T07:00:36;100964.94;;;17.58;100.00
59170;BME280;52474;52.236;5.114;2023-07-30T07:03:03;100969.06;;;17.69;100.00
59170;BME280;52474;52.236;5.114;2023-07-30T07:05:29;100953.41;;;17.58;100.00
59170;BME280;52474;52.236;5.114;2023-07-30T07:07:55;100968.75;;;17.64;100.00
59170;BME280;52474;52.236;5.114;2023-07-30T07:10:21;100964.56;;;17.70;100.00
59170;BME280;52474;52.236;5.114;2023-07-30T07:12:46;100965.41;;;17.62;100.00
59170;BME280;52474;52.236;5.114;2023-07-30T07:15:12;100962.78;;;17.54;100.00
59170;BME280;52474;52.236;5.114;2023-07-30T07:17:39;100962.97;;;17.52;100.00
59170;BME280;52474;52.236;5.114;2023-07-30T07:20:05;100963.31;;;17.49;100.00
59170;BME280;52474;52.236;5.114;2023-07-30T07:22:33;100962.78;;;17.54;100.00
59170;BME280;52474;52.236;5.114;2023-07-30T07:24:59;100969.47;;;17.58;100.00
59170;BME280;52474;52.236;5.114;2023-07-30T07:27:24;100975.00;;;17.56;100.00
59170;BME280;52474;52.236;5.114;2023-07-30T07:29:52;100972.50;;;17.47;100.00
59170;BME280;52474;52.236;5.114;2023-07-30T07:32:18;100959.00;;;17.40;100.00
59170;BME280;52474;52.236;5.114;2023-07-30T07:34:48;100986.22;;;17.60;100.00
59170;BME280;52474;52.236;5.114;2023-07-30T07:37:14;100981.16;;;17.65;100.00
59170;BME280;52474;52.236;5.114;2023-07-30T07:39:44;100988.88;;;17.60;100.00
59170;BME280;52474;52.236;5.114;2023-07-30T07:42:10;100965.19;;;17.41;100.00
59170;BME280;52474;52.236;5.114;2023-07-30T07:44:36;100991.94;;;17.49;100.00
59170;BME280;52474;52.236;5.114;2023-07-30T07:47:02;100973.41;;;17.31;100.00
59170;BME280;52474;52.236;5.114;2023-07-30T07:49:27;100997.63;;;17.46;100.00
59170;BME280;52474;52.236;5.114;2023-07-30T07:51:53;100981.81;;;17.28;100.00
59170;BME280;52474;52.236;5.114;2023-07-30T07:54:19;101001.03;;;17.31;100.00
59170;BME280;52474;52.236;5.114;2023-07-30T07:56:44;101016.72;;;17.34;100.00
59170;BME280;52474;52.236;5.114;2023-07-30T07:59:10;101003.28;;;16.87;100.00
59170;BME280;52474;52.236;5.114;2023-07-30T08:01:36;101008.59;;;16.54;100.00
59170;BME280;52474;52.236;5.114;2023-07-30T08:04:01;101014.91;;;16.45;100.00
59170;BME280;52474;52.236;5.114;2023-07-30T08:06:27;101022.94;;;16.53;100.00
59170;BME280;52474;52.236;5.114;2023-07-30T08:08:53;101016.25;;;16.65;100.00
59170;BME280;52474;52.236;5.114;2023-07-30T08:11:19;101019.78;;;16.66;100.00
59170;BME280;52474;52.236;5.114;2023-07-30T08:13:44;101021.81;;;16.80;100.00
59170;BME280;52474;52.236;5.114;2023-07-30T08:16:11;101016.25;;;16.73;100.00
59170;BME280;52474;52.236;5.114;2023-07-30T08:18:38;101023.66;;;16.96;100.00
59170;BME280;52474;52.236;5.114;2023-07-30T08:21:04;101031.34;;;16.83;100.00
59170;BME280;52474;52.236;5.114;2023-07-30T08:23:30;101005.56;;;16.65;100.00
59170;BME280;52474;52.236;5.114;2023-07-30T08:25:56;101025.97;;;16.74;100.00
59170;BME280;52474;52.236;5.114;2023-07-30T08:28:22;101024.69;;;16.79;100.00
59170;BME280;52474;52.236;5.114;2023-07-30T08:30:47;100996.06;;;16.87;100.00
59170;BME280;52474;52.236;5.114;2023-07-30T08:33:14;101015.34;;;17.47;100.00
59170;BME280;52474;52.236;5.114;2023-07-30T08:35:40;101018.47;;;17.67;100.00
59170;BME280;52474;52.236;5.114;2023-07-30T08:38:06;101014.44;;;18.41;100.00
59170;BME280;52474;52.236;5.114;2023-07-30T08:40:32;101008.84;;;18.51;100.00
59170;BME280;52474;52.236;5.114;2023-07-30T08:42:58;101024.66;;;18.15;100.00
59170;BME280;52474;52.236;5.114;2023-07-30T08:45:23;101006.56;;;17.69;100.00
59170;BME280;52474;52.236;5.114;2023-07-30T08:47:49;101011.59;;;17.72;100.00
59170;BME280;52474;52.236;5.114;2023-07-30T08:50:15;101010.03;;;17.38;100.00
59170;BME280;52474;52.236;5.114;2023-07-30T08:52:42;101016.88;;;17.41;100.00
59170;BME280;52474;52.236;5.114;2023-07-30T08:55:08;101007.13;;;17.65;100.00
59170;BME280;52474;52.236;5.114;2023-07-30T08:57:34;100992.00;;;17.72;100.00
59170;BME280;52474;52.236;5.114;2023-07-30T09:00:03;101002.44;;;18.52;100.00
59170;BME280;52474;52.236;5.114;2023-07-30T09:05:05;101036.47;;;18.83;100.00
59170;BME280;52474;52.236;5.114;2023-07-30T09:07:32;101012.56;;;18.65;100.00
59170;BME280;52474;52.236;5.114;2023-07-30T09:09:58;101012.31;;;18.75;100.00
59170;BME280;52474;52.236;5.114;2023-07-30T09:12:31;101018.47;;;18.60;100.00
59170;BME280;52474;52.236;5.114;2023-07-30T09:14:57;101000.88;;;18.12;100.00
59170;BME280;52474;52.236;5.114;2023-07-30T09:17:23;100989.47;;;17.78;100.00
59170;BME280;52474;52.236;5.114;2023-07-30T09:19:50;101015.59;;;17.76;100.00
59170;BME280;52474;52.236;5.114;2023-07-30T09:22:26;101020.97;;;17.85;100.00
59170;BME280;52474;52.236;5.114;2023-07-30T09:24:56;101033.84;;;17.81;100.00
59170;BME280;52474;52.236;5.114;2023-07-30T09:27:23;101035.19;;;17.85;100.00
59170;BME280;52474;52.236;5.114;2023-07-30T09:29:52;101038.69;;;17.86;100.00
59170;BME280;52474;52.236;5.114;2023-07-30T09:32:19;101040.38;;;17.78;100.00
59170;BME280;52474;52.236;5.114;2023-07-30T09:34:45;101032.22;;;17.64;100.00
59170;BME280;52474;52.236;5.114;2023-07-30T09:37:13;101042.56;;;17.67;100.00
59170;BME280;52474;52.236;5.114;2023-07-30T09:39:39;101030.56;;;17.54;100.00
59170;BME280;52474;52.236;5.114;2023-07-30T09:42:06;101037.28;;;17.98;100.00
59170;BME280;52474;52.236;5.114;2023-07-30T09:44:32;101044.75;;;18.19;100.00
59170;BME280;52474;52.236;5.114;2023-07-30T09:47:01;101037.03;;;18.93;100.00
59170;BME280;52474;52.236;5.114;2023-07-30T09:49:30;101057.31;;;19.78;100.00
59170;BME280;52474;52.236;5.114;2023-07-30T09:51:57;101064.69;;;20.21;100.00
59170;BME280;52474;52.236;5.114;2023-07-30T09:54:23;101059.84;;;20.52;100.00
59170;BME280;52474;52.236;5.114;2023-07-30T09:56:49;101070.53;;;20.82;100.00
59170;BME280;52474;52.236;5.114;2023-07-30T09:59:15;101054.59;;;21.09;100.00
59170;BME280;52474;52.236;5.114;2023-07-30T10:01:46;101050.38;;;21.56;100.00
59170;BME280;52474;52.236;5.114;2023-07-30T10:04:13;101055.16;;;21.54;100.00
59170;BME280;52474;52.236;5.114;2023-07-30T10:06:46;101046.53;;;21.09;100.00
59170;BME280;52474;52.236;5.114;2023-07-30T10:09:17;101063.81;;;20.71;100.00
59170;BME280;52474;52.236;5.114;2023-07-30T10:11:46;101067.31;;;21.21;100.00
59170;BME280;52474;52.236;5.114;2023-07-30T10:14:14;101069.84;;;20.95;100.00
59170;BME280;52474;52.236;5.114;2023-07-30T10:16:50;101068.59;;;20.97;100.00
59170;BME280;52474;52.236;5.114;2023-07-30T10:19:16;101068.69;;;20.61;100.00
59170;BME280;52474;52.236;5.114;2023-07-30T10:21:44;101034.44;;;20.76;100.00
59170;BME280;52474;52.236;5.114;2023-07-30T10:24:09;101063.88;;;20.99;100.00
59170;BME280;52474;52.236;5.114;2023-07-30T10:26:35;101066.66;;;20.48;100.00
59170;BME280;52474;52.236;5.114;2023-07-30T10:29:18;101054.63;;;19.93;100.00
59170;BME280;52474;52.236;5.114;2023-07-30T10:34:14;101058.78;;;19.66;100.00
59170;BME280;52474;52.236;5.114;2023-07-30T10:36:42;101073.25;;;19.65;100.00
59170;BME280;52474;52.236;5.114;2023-07-30T10:39:26;101079.16;;;19.45;100.00
59170;BME280;52474;52.236;5.114;2023-07-30T10:41:58;101068.78;;;19.27;100.00
59170;BME280;52474;52.236;5.114;2023-07-30T10:44:24;101077.31;;;20.05;100.00
59170;BME280;52474;52.236;5.114;2023-07-30T10:46:52;101073.72;;;19.98;100.00
59170;BME280;52474;52.236;5.114;2023-07-30T10:49:17;101096.06;;;20.13;100.00
59170;BME280;52474;52.236;5.114;2023-07-30T10:51:43;101063.25;;;19.88;100.00
59170;BME280;52474;52.236;5.114;2023-07-30T10:54:09;101090.59;;;19.92;100.00
59170;BME280;52474;52.236;5.114;2023-07-30T10:56:38;101102.03;;;19.56;100.00
59170;BME280;52474;52.236;5.114;2023-07-30T10:59:05;101098.31;;;19.27;100.00
59170;BME280;52474;52.236;5.114;2023-07-30T11:01:31;101093.97;;;19.03;100.00
59170;BME280;52474;52.236;5.114;2023-07-30T11:03:57;101097.13;;;19.07;100.00
59170;BME280;52474;52.236;5.114;2023-07-30T11:06:26;101112.09;;;19.77;100.00
59170;BME280;52474;52.236;5.114;2023-07-30T11:08:52;101114.66;;;20.15;100.00
59170;BME280;52474;52.236;5.114;2023-07-30T11:11:18;101118.00;;;20.17;100.00
59170;BME280;52474;52.236;5.114;2023-07-30T11:13:46;101108.38;;;20.08;100.00
59170;BME280;52474;52.236;5.114;2023-07-30T11:16:13;101114.41;;;20.10;100.00
59170;BME280;52474;52.236;5.114;2023-07-30T11:18:40;101097.47;;;19.94;100.00
59170;BME280;52474;52.236;5.114;2023-07-30T11:21:08;101109.78;;;20.04;100.00
59170;BME280;52474;52.236;5.114;2023-07-30T11:23:35;101102.06;;;20.67;100.00
59170;BME280;52474;52.236;5.114;2023-07-30T11:26:03;101107.19;;;20.83;100.00
59170;BME280;52474;52.236;5.114;2023-07-30T11:28:33;101118.19;;;20.67;100.00
59170;BME280;52474;52.236;5.114;2023-07-30T11:31:01;101107.78;;;21.50;100.00
59170;BME280;52474;52.236;5.114;2023-07-30T11:33:27;101097.56;;;22.08;100.00
59170;BME280;52474;52.236;5.114;2023-07-30T11:35:54;101095.06;;;22.55;100.00
59170;BME280;52474;52.236;5.114;2023-07-30T11:38:21;101100.47;;;22.13;100.00
59170;BME280;52474;52.236;5.114;2023-07-30T11:40:47;101109.38;;;22.62;100.00
59170;BME280;52474;52.236;5.114;2023-07-30T11:43:13;101102.78;;;22.84;100.00
59170;BME280;52474;52.236;5.114;2023-07-30T11:45:39;101108.19;;;22.91;100.00
59170;BME280;52474;52.236;5.114;2023-07-30T11:48:07;101117.97;;;23.45;100.00
59170;BME280;52474;52.236;5.114;2023-07-30T11:50:45;101126.88;;;23.72;100.00
59170;BME280;52474;52.236;5.114;2023-07-30T11:53:11;101112.25;;;24.07;100.00
59170;BME280;52474;52.236;5.114;2023-07-30T11:55:38;101126.91;;;23.92;100.00
59170;BME280;52474;52.236;5.114;2023-07-30T11:58:05;101126.53;;;23.55;100.00
59170;BME280;52474;52.236;5.114;2023-07-30T12:00:31;101126.09;;;23.32;100.00
59170;BME280;52474;52.236;5.114;2023-07-30T12:03:05;101123.38;;;23.52;100.00
59170;BME280;52474;52.236;5.114;2023-07-30T12:05:32;101098.16;;;23.91;100.00
59170;BME280;52474;52.236;5.114;2023-07-30T12:08:02;101124.06;;;24.19;100.00
59170;BME280;52474;52.236;5.114;2023-07-30T12:10:44;101126.22;;;24.55;100.00
59170;BME280;52474;52.236;5.114;2023-07-30T12:13:12;101139.19;;;24.40;100.00
59170;BME280;52474;52.236;5.114;2023-07-30T12:15:37;101141.50;;;23.78;100.00
59170;BME280;52474;52.236;5.114;2023-07-30T12:18:03;101136.66;;;23.87;100.00
59170;BME280;52474;52.236;5.114;2023-07-30T12:20:29;101134.22;;;23.39;100.00
59170;BME280;52474;52.236;5.114;2023-07-30T12:22:54;101136.31;;;23.43;100.00
59170;BME280;52474;52.236;5.114;2023-07-30T12:25:20;101134.09;;;24.12;100.00
59170;BME280;52474;52.236;5.114;2023-07-30T12:27:46;101146.41;;;24.01;100.00
59170;BME280;52474;52.236;5.114;2023-07-30T12:30:11;101138.50;;;24.06;100.00
59170;BME280;52474;52.236;5.114;2023-07-30T12:32:37;101127.84;;;24.18;100.00
59170;BME280;52474;52.236;5.114;2023-07-30T12:35:03;101114.00;;;23.88;100.00
59170;BME280;52474;52.236;5.114;2023-07-30T12:37:29;101134.91;;;24.19;100.00
59170;BME280;52474;52.236;5.114;2023-07-30T12:39:54;101132.34;;;24.31;100.00
59170;BME280;52474;52.236;5.114;2023-07-30T12:42:20;101121.34;;;24.32;100.00